sensor_id;sensor_type;location;lat;lon;timestamp;pressure;altitude;pressure_sealevel;temperature;humidity
32109;BME280;18624;50.042;8.436;2023-05-02T00:00:48;100550.94;;;14.15;72.31
32109;BME280;18624;50.042;8.436;2023-05-02T00:03:15;100520.28;;;13.91;72.67
32109;BME280;18624;50.042;8.436;2023-05-02T00:05:42;100569.00;;;14.16;72.96
32109;BME280;18624;50.042;8.436;2023-05-02T00:08:09;100553.81;;;14.11;73.32
32109;BME280;18624;50.042;8.436;2023-05-02T00:10:36;100474.75;;;13.42;73.34
32109;BME280;18624;50.042;8.436;2023-05-02T00:13:02;100480.78;;;13.50;73.81
32109;BME280;18624;50.042;8.436;2023-05-02T00:15:29;100557.38;;;13.99;74.04
32109;BME280;18624;50.042;8.436;2023-05-02T00:17:56;100566.56;;;13.96;74.59
32109;BME280;18624;50.042;8.436;2023-05-02T00:20:22;100463.59;;;13.24;74.47
32109;BME280;18624;50.042;8.436;2023-05-02T00:22:49;100557.19;;;13.93;74.73
32109;BME280;18624;50.042;8.436;2023-05-02T00:25:15;100554.28;;;13.75;74.74
32109;BME280;18624;50.042;8.436;2023-05-02T00:27:43;100553.94;;;13.73;75.21
32109;BME280;18624;50.042;8.436;2023-05-02T00:30:12;100552.34;;;13.63;75.95
32109;BME280;18624;50.042;8.436;2023-05-02T00:32:39;100509.56;;;13.36;76.18
32109;BME280;18624;50.042;8.436;2023-05-02T00:35:06;100524.09;;;13.37;76.52
32109;BME280;18624;50.042;8.436;2023-05-02T00:37:33;100557.22;;;13.46;76.17
32109;BME280;18624;50.042;8.436;2023-05-02T00:40:01;100571.63;;;13.63;76.27
32109;BME280;18624;50.042;8.436;2023-05-02T00:42:28;100518.16;;;13.13;77.52
32109;BME280;18624;50.042;8.436;2023-05-02T00:44:56;100507.06;;;13.04;77.13
32109;BME280;18624;50.042;8.436;2023-05-02T00:47:23;100582.44;;;13.57;77.55
32109;BME280;18624;50.042;8.436;2023-05-02T00:49:50;100579.03;;;13.53;77.72
32109;BME280;18624;50.042;8.436;2023-05-02T00:52:17;100542.84;;;13.29;77.39
32109;BME280;18624;50.042;8.436;2023-05-02T00:54:43;100560.13;;;13.42;77.03
32109;BME280;18624;50.042;8.436;2023-05-02T00:57:10;100549.44;;;13.32;77.86
32109;BME280;18624;50.042;8.436;2023-05-02T00:59:37;100559.47;;;13.38;77.81
32109;BME280;18624;50.042;8.436;2023-05-02T01:02:15;100589.28;;;13.53;77.52
32109;BME280;18624;50.042;8.436;2023-05-02T01:04:58;100536.44;;;13.20;77.34
32109;BME280;18624;50.042;8.436;2023-05-02T01:10:47;100521.59;;;13.04;77.88
32109;BME280;18624;50.042;8.436;2023-05-02T01:13:26;100546.94;;;13.25;77.65
32109;BME280;18624;50.042;8.436;2023-05-02T01:15:55;100594.00;;;13.52;77.52
32109;BME280;18624;50.042;8.436;2023-05-02T01:18:25;100593.34;;;13.48;78.06
32109;BME280;18624;50.042;8.436;2023-05-02T01:21:02;100560.69;;;13.25;78.51
32109;BME280;18624;50.042;8.436;2023-05-02T01:26:16;100557.34;;;13.17;79.68
32109;BME280;18624;50.042;8.436;2023-05-02T01:29:06;100593.72;;;13.37;79.21
32109;BME280;18624;50.042;8.436;2023-05-02T01:31:37;100603.72;;;13.44;79.23
32109;BME280;18624;50.042;8.436;2023-05-02T01:34:08;100613.09;;;13.47;79.21
32109;BME280;18624;50.042;8.436;2023-05-02T01:36:39;100551.28;;;13.09;79.15
32109;BME280;18624;50.042;8.436;2023-05-02T01:39:09;100552.06;;;13.10;79.35
32109;BME280;18624;50.042;8.436;2023-05-02T01:41:38;100545.38;;;12.98;79.50
32109;BME280;18624;50.042;8.436;2023-05-02T01:44:06;100606.69;;;13.37;80.10
32109;BME280;18624;50.042;8.436;2023-05-02T01:46:37;100620.03;;;13.38;79.27
32109;BME280;18624;50.042;8.436;2023-05-02T01:49:06;100603.06;;;13.27;79.75
32109;BME280;18624;50.042;8.436;2023-05-02T01:51:36;100619.03;;;13.32;80.11
32109;BME280;18624;50.042;8.436;2023-05-02T01:54:06;100568.81;;;12.90;80.36
32109;BME280;18624;50.042;8.436;2023-05-02T01:56:35;100596.31;;;13.03;81.43
32109;BME280;18624;50.042;8.436;2023-05-02T01:59:07;100567.16;;;12.80;81.74
32109;BME280;18624;50.042;8.436;2023-05-02T02:01:36;100633.19;;;13.18;82.37
32109;BME280;18624;50.042;8.436;2023-05-02T02:04:05;100564.72;;;12.69;82.76
32109;BME280;18624;50.042;8.436;2023-05-02T02:06:32;100539.53;;;12.58;83.29
32109;BME280;18624;50.042;8.436;2023-05-02T02:08:59;100531.81;;;12.53;83.18
32109;BME280;18624;50.042;8.436;2023-05-02T02:11:36;100559.66;;;12.67;83.68
32109;BME280;18624;50.042;8.436;2023-05-02T02:14:06;100587.28;;;12.89;83.58
32109;BME280;18624;50.042;8.436;2023-05-02T02:16:36;100637.59;;;13.03;85.16
32109;BME280;18624;50.042;8.436;2023-05-02T02:19:06;100642.66;;;13.04;85.62
32109;BME280;18624;50.042;8.436;2023-05-02T02:21:35;100627.91;;;12.98;85.84
32109;BME280;18624;50.042;8.436;2023-05-02T02:24:05;100640.34;;;13.03;85.66
32109;BME280;18624;50.042;8.436;2023-05-02T02:26:33;100629.56;;;12.96;85.51
32109;BME280;18624;50.042;8.436;2023-05-02T02:29:00;100574.25;;;12.52;85.57
32109;BME280;18624;50.042;8.436;2023-05-02T02:31:31;100661.72;;;13.11;85.38
32109;BME280;18624;50.042;8.436;2023-05-02T02:33:59;100665.34;;;13.08;86.04
32109;BME280;18624;50.042;8.436;2023-05-02T02:36:50;100665.91;;;13.16;85.97
32109;BME280;18624;50.042;8.436;2023-05-02T02:44:38;100669.75;;;13.18;85.86
32109;BME280;18624;50.042;8.436;2023-05-02T02:47:37;100665.81;;;13.20;84.86
32109;BME280;18624;50.042;8.436;2023-05-02T02:50:13;100658.97;;;13.11;85.46
32109;BME280;18624;50.042;8.436;2023-05-02T02:52:52;100661.50;;;13.18;85.51
32109;BME280;18624;50.042;8.436;2023-05-02T02:55:35;100662.69;;;13.17;85.91
32109;BME280;18624;50.042;8.436;2023-05-02T03:01:14;100666.00;;;13.12;86.54
32109;BME280;18624;50.042;8.436;2023-05-02T03:03:41;100671.50;;;13.12;86.67
32109;BME280;18624;50.042;8.436;2023-05-02T03:06:08;100677.00;;;13.12;86.54
32109;BME280;18624;50.042;8.436;2023-05-02T03:08:42;100678.22;;;13.11;86.87
32109;BME280;18624;50.042;8.436;2023-05-02T03:11:13;100637.66;;;12.74;87.38
32109;BME280;18624;50.042;8.436;2023-05-02T03:13:40;100631.06;;;12.71;87.02
32109;BME280;18624;50.042;8.436;2023-05-02T03:18:44;100645.69;;;12.68;88.20
32109;BME280;18624;50.042;8.436;2023-05-02T03:21:10;100694.94;;;13.04;88.46
32109;BME280;18624;50.042;8.436;2023-05-02T03:23:37;100703.50;;;12.93;89.29
32109;BME280;18624;50.042;8.436;2023-05-02T03:26:04;100705.06;;;12.95;89.43
32109;BME280;18624;50.042;8.436;2023-05-02T03:28:32;100711.84;;;12.90;89.74
32109;BME280;18624;50.042;8.436;2023-05-02T03:30:59;100710.88;;;12.84;89.69
32109;BME280;18624;50.042;8.436;2023-05-02T03:33:26;100715.88;;;12.73;91.06
32109;BME280;18624;50.042;8.436;2023-05-02T03:35:53;100695.56;;;12.54;91.84
32109;BME280;18624;50.042;8.436;2023-05-02T03:38:20;100682.44;;;12.45;92.83
32109;BME280;18624;50.042;8.436;2023-05-02T03:40:48;100694.97;;;12.46;93.12
32109;BME280;18624;50.042;8.436;2023-05-02T03:43:14;100734.13;;;12.66;93.71
32109;BME280;18624;50.042;8.436;2023-05-02T03:45:41;100669.47;;;12.16;94.41
32109;BME280;18624;50.042;8.436;2023-05-02T03:48:08;100624.75;;;11.83;94.40
32109;BME280;18624;50.042;8.436;2023-05-02T03:50:35;100654.34;;;12.08;94.32
32109;BME280;18624;50.042;8.436;2023-05-02T03:53:02;100725.91;;;12.50;94.82
32109;BME280;18624;50.042;8.436;2023-05-02T03:55:39;100698.28;;;12.25;95.11
32109;BME280;18624;50.042;8.436;2023-05-02T03:58:09;100684.81;;;12.14;95.92
32109;BME280;18624;50.042;8.436;2023-05-02T04:00:36;100707.81;;;12.20;96.04
32109;BME280;18624;50.042;8.436;2023-05-02T04:03:06;100732.03;;;12.41;95.18
32109;BME280;18624;50.042;8.436;2023-05-02T04:05:34;100724.66;;;12.38;95.09
32109;BME280;18624;50.042;8.436;2023-05-02T04:08:01;100737.75;;;12.47;95.58
32109;BME280;18624;50.042;8.436;2023-05-02T04:10:29;100686.38;;;12.15;95.19
32109;BME280;18624;50.042;8.436;2023-05-02T04:12:59;100688.69;;;12.16;95.15
32109;BME280;18624;50.042;8.436;2023-05-02T04:15:30;100754.75;;;12.58;95.38
32109;BME280;18624;50.042;8.436;2023-05-02T04:17:57;100725.84;;;12.37;95.33
32109;BME280;18624;50.042;8.436;2023-05-02T04:20:24;100769.38;;;12.55;96.17
32109;BME280;18624;50.042;8.436;2023-05-02T04:22:53;100725.34;;;12.26;95.77
32109;BME280;18624;50.042;8.436;2023-05-02T04:25:19;100673.34;;;11.86;96.11
32109;BME280;18624;50.042;8.436;2023-05-02T04:27:46;100677.63;;;11.87;96.58
32109;BME280;18624;50.042;8.436;2023-05-02T04:30:16;100790.19;;;12.56;96.94
32109;BME280;18624;50.042;8.436;2023-05-02T04:32:51;100794.03;;;12.59;96.52
32109;BME280;18624;50.042;8.436;2023-05-02T04:35:18;100745.00;;;12.25;96.88
32109;BME280;18624;50.042;8.436;2023-05-02T04:37:45;100800.91;;;12.51;96.47
32109;BME280;18624;50.042;8.436;2023-05-02T04:40:13;100772.00;;;12.30;96.82
32109;BME280;18624;50.042;8.436;2023-05-02T04:42:41;100813.72;;;12.57;97.02
32109;BME280;18624;50.042;8.436;2023-05-02T04:45:15;100782.53;;;12.31;97.49
32109;BME280;18624;50.042;8.436;2023-05-02T04:47:43;100808.66;;;12.39;97.90
32109;BME280;18624;50.042;8.436;2023-05-02T04:50:09;100827.31;;;12.48;98.16
32109;BME280;18624;50.042;8.436;2023-05-02T04:52:36;100803.56;;;12.38;98.78
32109;BME280;18624;50.042;8.436;2023-05-02T04:55:03;100845.66;;;12.51;99.57
32109;BME280;18624;50.042;8.436;2023-05-02T04:57:30;100743.63;;;11.84;99.34
32109;BME280;18624;50.042;8.436;2023-05-02T04:59:59;100835.38;;;12.39;99.09
32109;BME280;18624;50.042;8.436;2023-05-02T05:02:26;100831.34;;;12.44;99.52
32109;BME280;18624;50.042;8.436;2023-05-02T05:04:54;100806.16;;;12.29;99.47
32109;BME280;18624;50.042;8.436;2023-05-02T05:07:21;100813.91;;;12.34;99.64
32109;BME280;18624;50.042;8.436;2023-05-02T05:09:50;100832.44;;;12.46;99.07
32109;BME280;18624;50.042;8.436;2023-05-02T05:12:20;100785.88;;;12.06;99.06
32109;BME280;18624;50.042;8.436;2023-05-02T05:14:46;100812.25;;;12.20;99.37
32109;BME280;18624;50.042;8.436;2023-05-02T05:17:13;100751.88;;;11.84;99.52
32109;BME280;18624;50.042;8.436;2023-05-02T05:19:40;100832.09;;;12.28;99.14
32109;BME280;18624;50.042;8.436;2023-05-02T05:22:07;100768.19;;;11.91;98.19
32109;BME280;18624;50.042;8.436;2023-05-02T05:24:34;100834.00;;;12.31;97.67
32109;BME280;18624;50.042;8.436;2023-05-02T05:27:01;100836.22;;;12.36;97.55
32109;BME280;18624;50.042;8.436;2023-05-02T05:29:30;100874.38;;;12.66;97.21
32109;BME280;18624;50.042;8.436;2023-05-02T05:31:58;100864.50;;;12.53;98.26
32109;BME280;18624;50.042;8.436;2023-05-02T05:34:26;100818.44;;;12.24;98.37
32109;BME280;18624;50.042;8.436;2023-05-02T05:36:55;100873.25;;;12.64;96.42
32109;BME280;18624;50.042;8.436;2023-05-02T05:39:22;100833.75;;;12.25;98.35
32109;BME280;18624;50.042;8.436;2023-05-02T05:41:53;100865.69;;;12.52;97.52
32109;BME280;18624;50.042;8.436;2023-05-02T05:44:20;100877.72;;;12.58;97.21
32109;BME280;18624;50.042;8.436;2023-05-02T05:46:47;100871.97;;;12.52;96.58
32109;BME280;18624;50.042;8.436;2023-05-02T05:49:15;100819.28;;;12.05;97.07
32109;BME280;18624;50.042;8.436;2023-05-02T05:51:42;100896.97;;;12.58;96.47
32109;BME280;18624;50.042;8.436;2023-05-02T05:54:09;100832.44;;;12.13;96.74
32109;BME280;18624;50.042;8.436;2023-05-02T05:56:36;100870.50;;;12.31;98.07
32109;BME280;18624;50.042;8.436;2023-05-02T05:59:11;100866.97;;;12.31;98.30
32109;BME280;18624;50.042;8.436;2023-05-02T06:01:37;100841.88;;;12.12;99.46
32109;BME280;18624;50.042;8.436;2023-05-02T06:04:04;100919.16;;;12.67;98.08
32109;BME280;18624;50.042;8.436;2023-05-02T06:06:35;100899.28;;;12.59;97.29
32109;BME280;18624;50.042;8.436;2023-05-02T06:09:02;100922.75;;;12.80;97.00
32109;BME280;18624;50.042;8.436;2023-05-02T06:11:30;100899.13;;;12.66;96.55
32109;BME280;18624;50.042;8.436;2023-05-02T06:13:57;100876.28;;;12.53;96.29
32109;BME280;18624;50.042;8.436;2023-05-02T06:16:24;100888.66;;;12.61;96.78
32109;BME280;18624;50.042;8.436;2023-05-02T06:18:50;100898.69;;;12.68;96.68
32109;BME280;18624;50.042;8.436;2023-05-02T06:21:18;100920.00;;;12.80;98.03
32109;BME280;18624;50.042;8.436;2023-05-02T06:23:45;100888.13;;;12.66;97.02
32109;BME280;18624;50.042;8.436;2023-05-02T06:26:11;100895.16;;;12.67;96.02
32109;BME280;18624;50.042;8.436;2023-05-02T06:28:38;100913.75;;;12.80;97.38
32109;BME280;18624;50.042;8.436;2023-05-02T06:31:05;100903.91;;;12.79;97.06
32109;BME280;18624;50.042;8.436;2023-05-02T06:33:32;100868.78;;;12.54;95.82
32109;BME280;18624;50.042;8.436;2023-05-02T06:35:59;100956.88;;;13.15;94.87
32109;BME280;18624;50.042;8.436;2023-05-02T06:38:28;100949.47;;;13.12;95.65
32109;BME280;18624;50.042;8.436;2023-05-02T06:40:54;100957.56;;;13.20;95.16
32109;BME280;18624;50.042;8.436;2023-05-02T06:43:21;100960.66;;;13.22;94.68
32109;BME280;18624;50.042;8.436;2023-05-02T06:45:47;100967.78;;;13.19;94.99
32109;BME280;18624;50.042;8.436;2023-05-02T06:48:14;100919.97;;;12.97;94.71
32109;BME280;18624;50.042;8.436;2023-05-02T06:50:41;100907.13;;;12.93;94.42
32109;BME280;18624;50.042;8.436;2023-05-02T06:53:07;100978.97;;;13.45;93.96
32109;BME280;18624;50.042;8.436;2023-05-02T06:55:34;100873.66;;;12.95;90.06
32109;BME280;18624;50.042;8.436;2023-05-02T06:58:00;100865.06;;;12.93;90.17
32109;BME280;18624;50.042;8.436;2023-05-02T07:00:27;100918.59;;;13.37;87.43
32109;BME280;18624;50.042;8.436;2023-05-02T07:02:53;100964.00;;;13.75;86.94
32109;BME280;18624;50.042;8.436;2023-05-02T07:05:20;100980.63;;;13.71;87.63
32109;BME280;18624;50.042;8.436;2023-05-02T07:07:46;100922.06;;;13.25;87.56
32109;BME280;18624;50.042;8.436;2023-05-02T07:10:13;100986.50;;;13.57;87.54
32109;BME280;18624;50.042;8.436;2023-05-02T07:12:39;100983.56;;;13.64;86.85
32109;BME280;18624;50.042;8.436;2023-05-02T07:15:06;100971.81;;;13.47;85.83
32109;BME280;18624;50.042;8.436;2023-05-02T07:17:33;100970.78;;;13.41;87.11
32109;BME280;18624;50.042;8.436;2023-05-02T07:20:02;101005.19;;;13.65;84.71
32109;BME280;18624;50.042;8.436;2023-05-02T07:22:31;101002.06;;;13.63;86.28
32109;BME280;18624;50.042;8.436;2023-05-02T07:25:02;100996.47;;;13.67;88.05
32109;BME280;18624;50.042;8.436;2023-05-02T07:27:30;100816.72;;;12.47;88.05
32109;BME280;18624;50.042;8.436;2023-05-02T07:29:58;100993.63;;;13.71;86.47
32109;BME280;18624;50.042;8.436;2023-05-02T07:32:26;100931.75;;;13.30;83.82
32109;BME280;18624;50.042;8.436;2023-05-02T07:34:53;100948.13;;;13.50;82.68
32109;BME280;18624;50.042;8.436;2023-05-02T07:37:21;100960.97;;;13.56;80.44
32109;BME280;18624;50.042;8.436;2023-05-02T07:39:47;100913.34;;;13.27;80.91
32109;BME280;18624;50.042;8.436;2023-05-02T07:42:14;100927.94;;;13.40;81.69
32109;BME280;18624;50.042;8.436;2023-05-02T07:44:40;100962.50;;;13.57;81.13
32109;BME280;18624;50.042;8.436;2023-05-02T07:47:07;100973.34;;;13.64;79.89
32109;BME280;18624;50.042;8.436;2023-05-02T07:49:34;101005.47;;;13.84;80.78
32109;BME280;18624;50.042;8.436;2023-05-02T07:52:03;100996.28;;;13.74;79.97
32109;BME280;18624;50.042;8.436;2023-05-02T07:54:29;101000.56;;;13.75;78.61
32109;BME280;18624;50.042;8.436;2023-05-02T07:56:56;100965.00;;;13.52;79.29
32109;BME280;18624;50.042;8.436;2023-05-02T07:59:27;100967.09;;;13.48;81.99
32109;BME280;18624;50.042;8.436;2023-05-02T08:01:53;101052.78;;;13.95;80.66
32109;BME280;18624;50.042;8.436;2023-05-02T08:04:20;101020.19;;;13.77;81.57
32109;BME280;18624;50.042;8.436;2023-05-02T08:06:47;101018.59;;;13.63;81.40
32109;BME280;18624;50.042;8.436;2023-05-02T08:09:13;100991.88;;;13.48;80.88
32109;BME280;18624;50.042;8.436;2023-05-02T08:11:40;101002.34;;;13.53;82.24
32109;BME280;18624;50.042;8.436;2023-05-02T08:14:06;101045.75;;;13.78;83.10
32109;BME280;18624;50.042;8.436;2023-05-02T08:16:33;101034.41;;;13.76;83.77
32109;BME280;18624;50.042;8.436;2023-05-02T08:18:59;101021.94;;;13.71;84.87
32109;BME280;18624;50.042;8.436;2023-05-02T08:21:26;100985.06;;;13.52;84.46
32109;BME280;18624;50.042;8.436;2023-05-02T08:23:57;101050.91;;;13.92;79.70
32109;BME280;18624;50.042;8.436;2023-05-02T08:26:23;101018.41;;;13.71;81.74
32109;BME280;18624;50.042;8.436;2023-05-02T08:28:50;101041.34;;;13.97;82.10
32109;BME280;18624;50.042;8.436;2023-05-02T08:31:17;101054.72;;;14.11;80.77
32109;BME280;18624;50.042;8.436;2023-05-02T08:33:44;101053.63;;;14.21;78.02
32109;BME280;18624;50.042;8.436;2023-05-02T08:36:12;101071.63;;;14.26;78.53
32109;BME280;18624;50.042;8.436;2023-05-02T08:38:39;101069.53;;;14.30;76.52
32109;BME280;18624;50.042;8.436;2023-05-02T08:41:17;101076.84;;;14.36;76.77
32109;BME280;18624;50.042;8.436;2023-05-02T08:43:47;101000.53;;;13.91;82.29
32109;BME280;18624;50.042;8.436;2023-05-02T08:46:15;101077.84;;;14.42;78.35
32109;BME280;18624;50.042;8.436;2023-05-02T08:48:44;101087.16;;;14.49;77.13
32109;BME280;18624;50.042;8.436;2023-05-02T08:51:15;101050.66;;;14.15;77.44
32109;BME280;18624;50.042;8.436;2023-05-02T08:53:43;101085.38;;;14.42;78.14
32109;BME280;18624;50.042;8.436;2023-05-02T08:56:11;101077.28;;;14.35;77.90
32109;BME280;18624;50.042;8.436;2023-05-02T08:58:39;101089.22;;;14.44;77.15
32109;BME280;18624;50.042;8.436;2023-05-02T09:01:13;101074.75;;;14.28;76.75
32109;BME280;18624;50.042;8.436;2023-05-02T09:03:43;101031.25;;;13.90;75.74
32109;BME280;18624;50.042;8.436;2023-05-02T09:06:18;101101.13;;;14.41;77.83
32109;BME280;18624;50.042;8.436;2023-05-02T09:08:47;101096.72;;;14.44;77.95
32109;BME280;18624;50.042;8.436;2023-05-02T09:11:15;101106.94;;;14.60;76.61
32109;BME280;18624;50.042;8.436;2023-05-02T09:13:46;101108.72;;;14.66;74.44
32109;BME280;18624;50.042;8.436;2023-05-02T09:16:17;101113.59;;;14.75;75.43
32109;BME280;18624;50.042;8.436;2023-05-02T09:18:47;101107.19;;;14.78;74.20
32109;BME280;18624;50.042;8.436;2023-05-02T09:21:16;101120.56;;;15.05;75.28
32109;BME280;18624;50.042;8.436;2023-05-02T09:23:51;101090.97;;;15.06;71.74
32109;BME280;18624;50.042;8.436;2023-05-02T09:28:49;101118.66;;;15.53;70.77
32109;BME280;18624;50.042;8.436;2023-05-02T09:31:20;101051.97;;;15.16;69.46
32109;BME280;18624;50.042;8.436;2023-05-02T09:34:12;101123.94;;;15.60;66.70
32109;BME280;18624;50.042;8.436;2023-05-02T09:36:41;101122.41;;;15.59;67.97
32109;BME280;18624;50.042;8.436;2023-05-02T09:39:09;101097.88;;;15.49;67.67
32109;BME280;18624;50.042;8.436;2023-05-02T09:41:40;101062.34;;;15.12;67.48
32109;BME280;18624;50.042;8.436;2023-05-02T09:44:13;101091.94;;;15.37;68.77
32109;BME280;18624;50.042;8.436;2023-05-02T09:49:38;101121.50;;;15.62;66.34
32109;BME280;18624;50.042;8.436;2023-05-02T09:52:12;101052.44;;;15.15;67.32
32109;BME280;18624;50.042;8.436;2023-05-02T09:54:39;101057.16;;;15.27;66.75
32109;BME280;18624;50.042;8.436;2023-05-02T09:57:06;101104.63;;;15.48;66.48
32109;BME280;18624;50.042;8.436;2023-05-02T09:59:33;101070.44;;;15.19;64.39
32109;BME280;18624;50.042;8.436;2023-05-02T10:02:01;101143.59;;;15.62;65.71
32109;BME280;18624;50.042;8.436;2023-05-02T10:04:30;101138.34;;;15.55;64.01
32109;BME280;18624;50.042;8.436;2023-05-02T10:06:58;101132.38;;;15.44;65.49
32109;BME280;18624;50.042;8.436;2023-05-02T10:09:25;101059.06;;;15.05;66.87
32109;BME280;18624;50.042;8.436;2023-05-02T10:11:55;101141.31;;;15.61;66.45
32109;BME280;18624;50.042;8.436;2023-05-02T10:14:23;101047.56;;;15.06;67.02
32109;BME280;18624;50.042;8.436;2023-05-02T10:17:06;101073.28;;;15.29;66.12
32109;BME280;18624;50.042;8.436;2023-05-02T10:19:41;101114.56;;;15.58;66.21
32109;BME280;18624;50.042;8.436;2023-05-02T10:22:11;101077.03;;;15.35;65.34
32109;BME280;18624;50.042;8.436;2023-05-02T10:24:39;101129.03;;;15.62;64.54
32109;BME280;18624;50.042;8.436;2023-05-02T10:27:07;101142.75;;;15.65;65.40
32109;BME280;18624;50.042;8.436;2023-05-02T10:29:34;101084.34;;;15.29;65.98
32109;BME280;18624;50.042;8.436;2023-05-02T10:32:03;101069.00;;;15.15;64.11
32109;BME280;18624;50.042;8.436;2023-05-02T10:34:31;101135.59;;;15.68;64.70
32109;BME280;18624;50.042;8.436;2023-05-02T10:36:59;101078.50;;;15.27;65.71
32109;BME280;18624;50.042;8.436;2023-05-02T10:39:29;101139.31;;;15.74;66.62
32109;BME280;18624;50.042;8.436;2023-05-02T10:41:58;101137.41;;;15.84;63.39
32109;BME280;18624;50.042;8.436;2023-05-02T10:44:39;101133.88;;;15.83;62.78
32109;BME280;18624;50.042;8.436;2023-05-02T10:47:21;101068.22;;;15.27;62.79
32109;BME280;18624;50.042;8.436;2023-05-02T10:50:07;101063.56;;;15.37;62.96
32109;BME280;18624;50.042;8.436;2023-05-02T10:52:36;101122.06;;;15.83;61.42
32109;BME280;18624;50.042;8.436;2023-05-02T10:55:19;101119.28;;;15.83;61.76
32109;BME280;18624;50.042;8.436;2023-05-02T11:00:29;101051.75;;;15.36;63.15
32109;BME280;18624;50.042;8.436;2023-05-02T11:02:56;101087.38;;;15.69;61.58
32109;BME280;18624;50.042;8.436;2023-05-02T11:05:23;101108.66;;;15.94;60.08
32109;BME280;18624;50.042;8.436;2023-05-02T11:10:46;101065.91;;;15.73;58.65
32109;BME280;18624;50.042;8.436;2023-05-02T11:13:13;101053.56;;;15.65;60.22
32109;BME280;18624;50.042;8.436;2023-05-02T11:18:10;101089.16;;;15.98;60.27
32109;BME280;18624;50.042;8.436;2023-05-02T11:20:40;100983.47;;;15.37;60.22
32109;BME280;18624;50.042;8.436;2023-05-02T11:25:49;101077.97;;;16.23;60.09
32109;BME280;18624;50.042;8.436;2023-05-02T11:31:03;101071.81;;;16.41;58.02
32109;BME280;18624;50.042;8.436;2023-05-02T11:33:30;101066.56;;;16.43;58.78
32109;BME280;18624;50.042;8.436;2023-05-02T11:35:56;101071.84;;;16.50;58.13
32109;BME280;18624;50.042;8.436;2023-05-02T11:38:25;101087.28;;;16.60;58.76
32109;BME280;18624;50.042;8.436;2023-05-02T11:40:57;101064.13;;;16.45;57.98
32109;BME280;18624;50.042;8.436;2023-05-02T11:43:25;101078.28;;;16.47;57.10
32109;BME280;18624;50.042;8.436;2023-05-02T11:45:58;101069.44;;;16.30;57.78
32109;BME280;18624;50.042;8.436;2023-05-02T11:48:25;101078.03;;;16.32;57.88
32109;BME280;18624;50.042;8.436;2023-05-02T11:50:57;101082.03;;;16.31;58.51
32109;BME280;18624;50.042;8.436;2023-05-02T11:53:26;101066.59;;;16.21;59.09
32109;BME280;18624;50.042;8.436;2023-05-02T11:56:00;101077.53;;;16.25;58.60
32109;BME280;18624;50.042;8.436;2023-05-02T11:58:28;101072.91;;;16.22;57.73
32109;BME280;18624;50.042;8.436;2023-05-02T12:00:58;101064.63;;;16.22;55.94
32109;BME280;18624;50.042;8.436;2023-05-02T12:03:30;101015.19;;;15.89;56.60
32109;BME280;18624;50.042;8.436;2023-05-02T12:06:11;101078.50;;;16.31;57.13
32109;BME280;18624;50.042;8.436;2023-05-02T12:08:39;101054.69;;;16.11;58.63
32109;BME280;18624;50.042;8.436;2023-05-02T12:11:06;101085.56;;;16.32;60.14
32109;BME280;18624;50.042;8.436;2023-05-02T12:13:34;101015.19;;;15.89;59.19
32109;BME280;18624;50.042;8.436;2023-05-02T12:16:09;101090.78;;;16.30;60.92
32109;BME280;18624;50.042;8.436;2023-05-02T12:18:36;101044.91;;;15.98;60.26
32109;BME280;18624;50.042;8.436;2023-05-02T12:21:04;101098.06;;;16.36;61.08
32109;BME280;18624;50.042;8.436;2023-05-02T12:23:31;101059.44;;;16.11;61.27
32109;BME280;18624;50.042;8.436;2023-05-02T12:26:16;101094.06;;;16.37;60.40
32109;BME280;18624;50.042;8.436;2023-05-02T12:28:50;101086.47;;;16.29;61.05
32109;BME280;18624;50.042;8.436;2023-05-02T12:31:17;101105.69;;;16.32;59.69
32109;BME280;18624;50.042;8.436;2023-05-02T12:33:45;101108.78;;;16.34;60.16
32109;BME280;18624;50.042;8.436;2023-05-02T12:36:17;101078.44;;;16.22;58.08
32109;BME280;18624;50.042;8.436;2023-05-02T12:38:50;101096.38;;;16.39;56.84
32109;BME280;18624;50.042;8.436;2023-05-02T12:41:40;101105.00;;;16.41;56.57
32109;BME280;18624;50.042;8.436;2023-05-02T12:44:11;101102.53;;;16.43;56.97
32109;BME280;18624;50.042;8.436;2023-05-02T12:46:57;101114.25;;;16.47;56.56
32109;BME280;18624;50.042;8.436;2023-05-02T12:49:24;101116.59;;;16.49;56.45
32109;BME280;18624;50.042;8.436;2023-05-02T12:51:53;101071.81;;;16.19;56.39
32109;BME280;18624;50.042;8.436;2023-05-02T12:54:23;101112.72;;;16.46;55.50
32109;BME280;18624;50.042;8.436;2023-05-02T12:56:51;101117.78;;;16.48;56.73
32109;BME280;18624;50.042;8.436;2023-05-02T12:59:28;101116.25;;;16.46;57.23
32109;BME280;18624;50.042;8.436;2023-05-02T13:01:55;101059.03;;;16.12;56.95
32109;BME280;18624;50.042;8.436;2023-05-02T13:04:33;101117.53;;;16.55;57.29
32109;BME280;18624;50.042;8.436;2023-05-02T13:07:00;101103.81;;;16.51;57.35
32109;BME280;18624;50.042;8.436;2023-05-02T13:09:27;101122.34;;;16.63;58.75
32109;BME280;18624;50.042;8.436;2023-05-02T13:11:53;101123.25;;;16.60;58.94
32109;BME280;18624;50.042;8.436;2023-05-02T13:14:20;101065.25;;;16.26;59.60
32109;BME280;18624;50.042;8.436;2023-05-02T13:16:48;101112.91;;;16.52;59.26
32109;BME280;18624;50.042;8.436;2023-05-02T13:19:15;101098.81;;;16.37;59.73
32109;BME280;18624;50.042;8.436;2023-05-02T13:21:42;101105.69;;;16.32;59.99
32109;BME280;18624;50.042;8.436;2023-05-02T13:24:08;101114.06;;;16.41;59.48
32109;BME280;18624;50.042;8.436;2023-05-02T13:26:35;101040.22;;;15.85;59.17
32109;BME280;18624;50.042;8.436;2023-05-02T13:29:01;101057.59;;;15.86;59.79
32109;BME280;18624;50.042;8.436;2023-05-02T13:31:28;101079.66;;;15.99;60.63
32109;BME280;18624;50.042;8.436;2023-05-02T13:33:54;101086.84;;;15.96;60.30
32109;BME280;18624;50.042;8.436;2023-05-02T13:36:21;101119.06;;;16.12;60.06